Terminal Aerodrome Forecast
Issued by NWS

Current Version | Previous Version | Text Only | Print | Product List | Glossary On
Versions: 1 2 3 4 5 6 7 8 9 10 11 12 13 14 15 16 17 18 19 20 21 22 23 24 25 26 27 28 29 30
000
FTUS41 KALY 230500
TAFPSF
TAF
KPSF 230523Z 2306/2406 04010G16KT 5SM -RA BR OVC020
      TEMPO 2306/2308 3SM RA OVC015
     FM230800 03010G15KT 4SM -RA BR SCT006 OVC012
      TEMPO 2308/2312 2SM RA BR OVC006
     FM231200 35012G20KT 2SM RA BR OVC007
     FM231600 35012G20KT 3SM -RA BR OVC012=

USA.gov is the U.S. government's official web portal to all federal, state and local government web resources and services.